createdAt,value
2022-08-26T00:01:04.874Z,101441.00
2022-08-26T00:03:34.187Z,101443.56
2022-08-26T00:06:03.151Z,101443.09
2022-08-26T00:08:33.236Z,101438.13
2022-08-26T00:11:02.547Z,101444.44
2022-08-26T00:13:31.509Z,101437.94
2022-08-26T00:16:00.968Z,101439.81
2022-08-26T00:18:38.585Z,101446.28
2022-08-26T00:21:11.272Z,101437.28
2022-08-26T00:23:41.493Z,101442.09
2022-08-26T00:26:11.094Z,101442.38
2022-08-26T00:28:40.259Z,101440.44
2022-08-26T00:31:10.896Z,101442.91
2022-08-26T00:33:40.127Z,101439.13
2022-08-26T00:36:20.069Z,101443.69
2022-08-26T00:38:50.736Z,101452.69
2022-08-26T00:41:21.631Z,101442.59
2022-08-26T00:43:50.510Z,101436.94
2022-08-26T00:46:26.581Z,101442.03
2022-08-26T00:49:11.984Z,101439.72
2022-08-26T00:51:49.232Z,101439.50
2022-08-26T00:54:23.928Z,101433.50
2022-08-26T00:57:02.214Z,101436.69
2022-08-26T00:59:34.126Z,101441.88
2022-08-26T01:05:26.468Z,101430.41
2022-08-26T01:07:55.934Z,101430.09
2022-08-26T01:10:31.564Z,101435.34
2022-08-26T01:13:04.371Z,101435.53
2022-08-26T01:15:38.602Z,101434.69
2022-08-26T01:18:09.201Z,101430.97
2022-08-26T01:20:53.673Z,101438.06
2022-08-26T01:23:32.647Z,101432.97
2022-08-26T01:26:19.567Z,101438.94
2022-08-26T01:28:51.813Z,101436.31
2022-08-26T01:31:26.587Z,101443.00
2022-08-26T01:34:06.831Z,101445.31
2022-08-26T01:36:39.973Z,101454.28
2022-08-26T01:39:12.160Z,101444.00
2022-08-26T01:41:44.052Z,101451.03
2022-08-26T01:44:21.271Z,101453.97
2022-08-26T01:46:53.497Z,101458.63
2022-08-26T01:49:28.293Z,101450.66
2022-08-26T01:52:02.280Z,101449.69
2022-08-26T01:54:34.615Z,101445.97
2022-08-26T01:57:04.329Z,101447.34
2022-08-26T01:59:33.286Z,101453.47
2022-08-26T02:02:03.121Z,101440.72
2022-08-26T02:04:37.829Z,101433.41
2022-08-26T02:07:11.049Z,101438.88
2022-08-26T02:09:43.109Z,101443.59
2022-08-26T02:12:16.238Z,101439.88
2022-08-26T02:14:50.393Z,101443.59
2022-08-26T02:17:24.646Z,101441.91
2022-08-26T02:19:54.686Z,101440.72
2022-08-26T02:22:25.408Z,101442.75
2022-08-26T02:25:00.211Z,101440.88
2022-08-26T02:27:33.329Z,101440.88
2022-08-26T02:30:10.818Z,101439.88
2022-08-26T02:32:40.110Z,101447.03
2022-08-26T02:35:12.100Z,101440.03
2022-08-26T02:37:42.015Z,101438.16
2022-08-26T02:40:16.401Z,101439.03
2022-08-26T02:42:45.239Z,101435.44
2022-08-26T02:45:14.594Z,101438.16
2022-08-26T02:47:47.077Z,101435.44
2022-08-26T02:50:16.381Z,101433.06
2022-08-26T02:52:46.295Z,101435.06
2022-08-26T02:55:17.397Z,101431.34
2022-08-26T02:57:46.937Z,101431.34
2022-08-26T03:00:17.570Z,101428.63
2022-08-26T03:05:26.312Z,101424.50
2022-08-26T03:07:57.271Z,101433.72
2022-08-26T03:10:31.677Z,101429.28
2022-08-26T03:13:01.655Z,101420.94
2022-08-26T03:15:37.560Z,101418.41
2022-08-26T03:18:06.855Z,101421.13
2022-08-26T03:20:37.674Z,101419.25
2022-08-26T03:23:06.816Z,101419.91
2022-08-26T03:25:35.726Z,101421.47
2022-08-26T03:28:05.532Z,101416.72
2022-08-26T03:30:45.131Z,101409.75
2022-08-26T03:33:15.748Z,101415.88
2022-08-26T03:35:50.628Z,101411.44
2022-08-26T03:38:21.101Z,101414.31
2022-08-26T03:40:50.001Z,101422.81
2022-08-26T03:43:20.219Z,101416.34
2022-08-26T03:45:48.983Z,101411.94
2022-08-26T03:48:20.005Z,101415.03
2022-08-26T03:50:50.387Z,101413.81
2022-08-26T03:53:20.639Z,101420.28
2022-08-26T03:55:52.067Z,101417.41
2022-08-26T03:58:21.870Z,101414.84
2022-08-26T04:00:55.554Z,101420.63
2022-08-26T04:03:38.743Z,101414.16
2022-08-26T04:06:09.561Z,101405.84
2022-08-26T04:08:38.966Z,101409.59
2022-08-26T04:11:08.669Z,101417.75
2022-08-26T04:13:38.955Z,101417.56
2022-08-26T04:16:09.434Z,101414.69
2022-08-26T04:18:40.606Z,101418.09
2022-08-26T04:21:16.717Z,101422.53
2022-08-26T04:23:47.131Z,101426.28
2022-08-26T04:26:17.584Z,101426.78
2022-08-26T04:28:48.531Z,101434.09
2022-08-26T04:31:19.488Z,101433.09
2022-08-26T04:33:51.116Z,101435.44
2022-08-26T04:36:21.201Z,101427.97
2022-08-26T04:38:50.774Z,101431.38
2022-08-26T04:41:21.026Z,101430.09
2022-08-26T04:43:50.472Z,101426.16
2022-08-26T04:46:23.287Z,101433.31
2022-08-26T04:48:53.686Z,101434.72
2022-08-26T04:51:28.321Z,101428.44
2022-08-26T04:53:57.450Z,101428.59
2022-08-26T04:56:27.512Z,101433.16
2022-08-26T04:58:57.906Z,101434.22
2022-08-26T05:01:27.826Z,101434.91
2022-08-26T05:05:25.986Z,101436.13
2022-08-26T05:07:55.009Z,101444.47
2022-08-26T05:10:24.194Z,101438.69
2022-08-26T05:12:53.329Z,101441.78
2022-08-26T05:15:22.224Z,101440.22
2022-08-26T05:17:52.115Z,101439.69
2022-08-26T05:20:25.128Z,101434.25
2022-08-26T05:22:56.280Z,101448.25
2022-08-26T05:25:25.622Z,101443.09
2022-08-26T05:27:56.391Z,101445.72
2022-08-26T05:30:25.605Z,101436.69
2022-08-26T05:32:55.421Z,101434.38
2022-08-26T05:35:25.136Z,101438.28
2022-08-26T05:37:55.496Z,101443.28
2022-08-26T05:40:24.155Z,101441.91
2022-08-26T05:42:55.291Z,101443.94
2022-08-26T05:45:27.255Z,101433.34
2022-08-26T05:47:56.664Z,101429.28
2022-08-26T05:50:26.313Z,101432.00
2022-08-26T05:52:56.597Z,101435.56
2022-08-26T05:55:25.627Z,101427.25
2022-08-26T05:57:54.765Z,101427.59
2022-08-26T06:00:24.499Z,101435.63
2022-08-26T06:02:56.609Z,101414.69
2022-08-26T06:05:25.878Z,101424.06
2022-08-26T06:08:15.446Z,101404.97
2022-08-26T06:10:53.066Z,101404.19
2022-08-26T06:13:26.120Z,101409.28
2022-08-26T06:15:59.583Z,101415.44
2022-08-26T06:18:33.169Z,101408.09
2022-08-26T06:21:16.914Z,101406.22
2022-08-26T06:24:08.760Z,101404.00
2022-08-26T06:26:39.609Z,101394.81
2022-08-26T06:29:11.777Z,101388.84
2022-08-26T06:31:44.540Z,101391.72
2022-08-26T06:34:14.016Z,101396.69
2022-08-26T06:36:46.154Z,101394.94
2022-08-26T06:39:19.120Z,101392.22
2022-08-26T06:41:49.136Z,101394.25
2022-08-26T06:44:17.837Z,101390.47
2022-08-26T06:46:50.501Z,101381.59
2022-08-26T06:49:26.807Z,101372.53
2022-08-26T06:51:58.610Z,101364.94
2022-08-26T06:54:31.904Z,101355.75
2022-08-26T06:57:01.580Z,101347.47
2022-08-26T06:59:31.282Z,101357.34
2022-08-26T07:05:26.467Z,101337.28
2022-08-26T07:07:55.579Z,101332.03
2022-08-26T07:10:24.274Z,101331.47
2022-08-26T07:12:53.748Z,101333.03
2022-08-26T07:15:23.973Z,101318.81
2022-08-26T07:17:59.875Z,101315.72
2022-08-26T07:20:30.576Z,101311.00
2022-08-26T07:22:59.494Z,101305.22
2022-08-26T07:25:28.067Z,101302.91
2022-08-26T07:27:57.721Z,101304.56
2022-08-26T07:30:26.546Z,101299.25
2022-08-26T07:32:59.303Z,101289.59
2022-08-26T07:35:29.551Z,101285.75
2022-08-26T07:37:58.238Z,101285.53
2022-08-26T07:40:27.084Z,101286.09
2022-08-26T07:42:55.978Z,101276.34
2022-08-26T07:45:25.457Z,101276.81
2022-08-26T07:47:54.727Z,101270.34
2022-08-26T07:50:49.120Z,101273.75
2022-08-26T07:53:15.029Z,101269.25
2022-08-26T07:55:48.505Z,101267.84
2022-08-26T07:58:18.340Z,101266.31
2022-08-26T08:00:47.648Z,101261.38
2022-08-26T08:03:17.310Z,101267.34
2022-08-26T08:05:46.872Z,101268.16
2022-08-26T08:08:27.223Z,101260.75
2022-08-26T08:10:58.258Z,101265.91
2022-08-26T08:13:28.695Z,101261.03
2022-08-26T08:15:57.784Z,101256.59
2022-08-26T08:18:28.678Z,101255.47
2022-08-26T08:21:10.806Z,101256.31
2022-08-26T08:23:48.204Z,101258.28
2022-08-26T08:26:16.989Z,101244.88
2022-08-26T08:28:47.957Z,101249.41
2022-08-26T08:31:54.341Z,101253.72
2022-08-26T08:34:13.100Z,101245.28
2022-08-26T08:36:41.938Z,101241.91
2022-08-26T08:39:12.912Z,101244.06
2022-08-26T08:42:39.183Z,101244.09
2022-08-26T08:45:13.999Z,101247.53
2022-08-26T08:47:54.093Z,101246.75
2022-08-26T08:50:31.695Z,101239.78
2022-08-26T08:53:15.287Z,101240.03
2022-08-26T08:56:09.458Z,101240.75
2022-08-26T08:59:04.394Z,101235.88
2022-08-26T09:05:37.932Z,101227.06
2022-08-26T09:08:16.324Z,101230.31
2022-08-26T09:10:56.118Z,101218.47
2022-08-26T09:13:27.301Z,101231.06
2022-08-26T09:16:07.793Z,101228.13
2022-08-26T09:18:52.907Z,101229.06
2022-08-26T09:21:25.568Z,101229.00
2022-08-26T09:23:57.194Z,101223.47
2022-08-26T09:26:30.591Z,101231.50
2022-08-26T09:29:04.612Z,101228.13
2022-08-26T09:31:36.138Z,101244.31
2022-08-26T09:34:17.352Z,101243.63
2022-08-26T09:36:51.514Z,101244.69
2022-08-26T09:39:33.370Z,101239.88
2022-08-26T09:42:09.580Z,101230.34
2022-08-26T09:44:55.708Z,101232.88
2022-08-26T09:47:31.570Z,101225.66
2022-08-26T09:50:09.594Z,101227.16
2022-08-26T09:52:42.723Z,101220.66
2022-08-26T09:55:16.217Z,101212.97
2022-08-26T09:57:51.093Z,101214.19
2022-08-26T10:00:30.277Z,101205.81
2022-08-26T10:02:59.966Z,101204.28
2022-08-26T10:05:32.109Z,101213.19
2022-08-26T10:08:12.160Z,101208.00
2022-08-26T10:10:45.097Z,101209.22
2022-08-26T10:13:18.668Z,101211.13
2022-08-26T10:16:01.153Z,101209.75
2022-08-26T10:18:34.752Z,101213.94
2022-08-26T10:21:10.934Z,101203.97
2022-08-26T10:23:45.063Z,101207.75
2022-08-26T10:26:17.807Z,101198.00
2022-08-26T10:28:55.070Z,101192.41
2022-08-26T10:31:30.796Z,101192.09
2022-08-26T10:34:10.034Z,101194.84
2022-08-26T10:37:13.537Z,101193.41
2022-08-26T10:39:56.924Z,101184.13
2022-08-26T10:42:31.422Z,101185.03
2022-08-26T10:45:07.650Z,101181.38
2022-08-26T10:47:49.905Z,101182.59
2022-08-26T10:50:18.852Z,101180.69
2022-08-26T10:53:01.497Z,101170.03
2022-08-26T10:55:37.259Z,101164.22
2022-08-26T10:58:29.430Z,101160.34
2022-08-26T11:01:23.576Z,101160.56
2022-08-26T11:05:25.628Z,101163.66
2022-08-26T11:07:57.112Z,101162.25
2022-08-26T11:11:05.270Z,101159.88
2022-08-26T11:14:04.515Z,101157.19
2022-08-26T11:16:35.556Z,101155.91
2022-08-26T11:19:13.159Z,101151.41
2022-08-26T11:21:53.497Z,101139.94
2022-08-26T11:24:42.705Z,101134.66
2022-08-26T11:28:05.467Z,101122.84
2022-08-26T11:30:57.000Z,101115.44
2022-08-26T11:33:49.265Z,101096.72
2022-08-26T11:36:41.037Z,101108.00
2022-08-26T11:39:21.523Z,101105.59
2022-08-26T11:41:54.180Z,101094.41
2022-08-26T11:44:24.872Z,101099.47
2022-08-26T11:46:57.039Z,101093.00
2022-08-26T11:49:26.195Z,101080.34
2022-08-26T11:52:09.385Z,101079.91
2022-08-26T11:54:39.299Z,101081.69
2022-08-26T11:57:13.599Z,101082.47
2022-08-26T11:59:43.624Z,101076.81
2022-08-26T12:02:18.667Z,101081.16
2022-08-26T12:04:50.850Z,101074.91
2022-08-26T12:07:25.321Z,101075.78
2022-08-26T12:09:59.028Z,101073.13
2022-08-26T12:12:35.047Z,101077.78
2022-08-26T12:15:18.954Z,101068.09
2022-08-26T12:17:52.927Z,101070.19
2022-08-26T12:20:46.082Z,101073.59
2022-08-26T12:23:29.622Z,101070.47
2022-08-26T12:26:08.643Z,101071.25
2022-08-26T12:28:45.057Z,101077.16
2022-08-26T12:31:20.707Z,101061.88
2022-08-26T12:33:50.675Z,101045.59
2022-08-26T12:36:29.364Z,101045.63
2022-08-26T12:38:58.642Z,101039.69
2022-08-26T12:41:44.700Z,101031.34
2022-08-26T12:45:00.278Z,101028.81
2022-08-26T12:47:43.015Z,101034.69
2022-08-26T12:50:21.402Z,101020.19
2022-08-26T12:53:00.657Z,101015.28
2022-08-26T12:55:40.884Z,101012.59
2022-08-26T12:58:28.351Z,100996.09
2022-08-26T13:00:59.668Z,100998.81
2022-08-26T13:05:29.349Z,100998.78
2022-08-26T13:08:26.226Z,100984.72
2022-08-26T13:11:10.659Z,100988.81
2022-08-26T13:13:41.650Z,100985.44
2022-08-26T13:16:10.592Z,100990.06
2022-08-26T13:18:39.457Z,100982.91
2022-08-26T13:21:17.487Z,100983.88
2022-08-26T13:23:46.359Z,100989.28
2022-08-26T13:26:18.653Z,100990.84
2022-08-26T13:28:48.619Z,100994.69
2022-08-26T13:31:34.856Z,100997.47
2022-08-26T13:34:04.500Z,101002.84
2022-08-26T13:36:34.510Z,100999.59
2022-08-26T13:39:03.404Z,101016.34
2022-08-26T13:41:32.444Z,101014.94
2022-08-26T13:44:01.405Z,101009.06
2022-08-26T13:46:30.990Z,101010.91
2022-08-26T13:49:01.067Z,101013.81
2022-08-26T13:51:31.081Z,101009.31
2022-08-26T13:54:02.049Z,101009.09
2022-08-26T13:56:32.224Z,101005.41
2022-08-26T13:59:02.233Z,101020.03
2022-08-26T14:01:34.138Z,101020.66
2022-08-26T14:04:03.829Z,101008.41
2022-08-26T14:06:33.233Z,101013.44
2022-08-26T14:09:03.273Z,101008.16
2022-08-26T14:11:39.023Z,101007.69
2022-08-26T14:14:19.488Z,100999.34
2022-08-26T14:16:58.992Z,101016.75
2022-08-26T14:19:30.820Z,101038.59
2022-08-26T14:22:01.017Z,101042.97
2022-08-26T14:24:31.937Z,101039.03
2022-08-26T14:27:00.568Z,101034.44
2022-08-26T14:29:29.509Z,101030.91
2022-08-26T14:32:02.776Z,101021.38
2022-08-26T14:34:31.436Z,101017.69
2022-08-26T14:37:07.380Z,101009.75
2022-08-26T14:40:19.724Z,101011.28
2022-08-26T14:43:32.780Z,101004.72
2022-08-26T14:54:54.983Z,101006.81
2022-08-26T14:58:20.010Z,100987.03
2022-08-26T15:15:52.131Z,100917.19
2022-08-26T15:18:20.731Z,100919.03
2022-08-26T15:20:49.683Z,100917.59
2022-08-26T15:23:18.193Z,100920.69
2022-08-26T15:25:48.338Z,100908.59
2022-08-26T15:28:17.118Z,100918.22
2022-08-26T15:30:45.653Z,100924.75
2022-08-26T15:33:15.906Z,100936.53
2022-08-26T15:35:44.613Z,100938.84
2022-08-26T15:38:14.025Z,100934.81
2022-08-26T15:40:43.479Z,100931.19
2022-08-26T15:43:27.823Z,100933.72
2022-08-26T15:45:56.729Z,100928.81
2022-08-26T15:48:26.813Z,100937.69
2022-08-26T15:50:57.585Z,100939.91
2022-08-26T15:53:26.311Z,100931.00
2022-08-26T15:55:56.325Z,100938.97
2022-08-26T15:58:25.161Z,100947.28
2022-08-26T16:00:56.709Z,100953.44
2022-08-26T16:03:26.635Z,100955.34
2022-08-26T16:05:55.033Z,100959.78
2022-08-26T16:08:23.472Z,100974.28
2022-08-26T16:10:52.519Z,100966.47
2022-08-26T16:13:21.748Z,100975.53
2022-08-26T16:15:50.214Z,100979.19
2022-08-26T16:18:20.435Z,100980.06
2022-08-26T16:21:12.644Z,100987.44
2022-08-26T16:23:45.098Z,100977.28
2022-08-26T16:26:16.570Z,100968.91
2022-08-26T16:28:45.341Z,100969.81
2022-08-26T16:31:14.118Z,100954.00
2022-08-26T16:33:43.260Z,100959.25
2022-08-26T16:36:14.162Z,100951.03
2022-08-26T16:38:50.066Z,100953.09
2022-08-26T16:41:18.915Z,100944.84
2022-08-26T16:43:47.825Z,100949.69
2022-08-26T16:46:16.511Z,100943.50
2022-08-26T16:48:45.578Z,100947.56
2022-08-26T16:51:18.079Z,100944.41
2022-08-26T16:53:47.092Z,100952.41
2022-08-26T16:56:16.866Z,100952.25
2022-08-26T16:58:45.720Z,100960.94
2022-08-26T17:01:14.153Z,100968.56
2022-08-26T17:05:26.256Z,100968.41
2022-08-26T17:07:55.805Z,100967.34
2022-08-26T17:10:25.601Z,100969.44
2022-08-26T17:12:54.288Z,100964.75
2022-08-26T17:15:23.827Z,100955.44
2022-08-26T17:17:52.769Z,100965.34
2022-08-26T17:20:22.862Z,100966.25
2022-08-26T17:22:54.806Z,100972.97
2022-08-26T17:25:37.279Z,100964.88
2022-08-26T17:28:07.516Z,100976.81
2022-08-26T17:30:42.671Z,100978.25
2022-08-26T17:33:11.623Z,100991.66
2022-08-26T17:35:40.060Z,100994.28
2022-08-26T17:38:10.771Z,100996.72
2022-08-26T17:40:40.554Z,100994.34
2022-08-26T17:43:12.198Z,100997.19
2022-08-26T17:45:42.086Z,100997.16
2022-08-26T17:48:11.358Z,100997.09
2022-08-26T17:50:49.387Z,101007.31
2022-08-26T17:53:19.860Z,101004.31
2022-08-26T17:55:50.812Z,101005.28
2022-08-26T17:58:23.397Z,101004.91
2022-08-26T18:00:54.438Z,101005.91
2022-08-26T18:03:23.098Z,101005.84
2022-08-26T18:05:53.439Z,101006.63
2022-08-26T18:08:23.787Z,101010.75
2022-08-26T18:10:52.203Z,101017.47
2022-08-26T18:13:22.596Z,101016.13
2022-08-26T18:15:51.449Z,101014.00
2022-08-26T18:18:19.920Z,101023.63
2022-08-26T18:20:52.628Z,101014.31
2022-08-26T18:23:32.373Z,101010.41
2022-08-26T18:26:01.024Z,101009.59
2022-08-26T18:28:29.563Z,101004.69
2022-08-26T18:31:00.912Z,100996.22
2022-08-26T18:33:29.421Z,100999.72
2022-08-26T18:35:59.543Z,100995.81
2022-08-26T18:38:28.523Z,100999.50
2022-08-26T18:40:58.321Z,101001.75
2022-08-26T18:43:26.757Z,101000.72
2022-08-26T18:46:03.610Z,101004.47
2022-08-26T18:48:32.322Z,101008.00
2022-08-26T18:51:01.349Z,101003.84
2022-08-26T18:53:30.534Z,101005.41
2022-08-26T18:56:00.816Z,101009.91
2022-08-26T18:58:29.245Z,101004.50
2022-08-26T19:00:58.350Z,101004.19
2022-08-26T19:05:34.993Z,101009.72
2022-08-26T19:08:13.988Z,101001.72
2022-08-26T19:10:42.981Z,101004.16
2022-08-26T19:13:11.779Z,100999.22
2022-08-26T19:15:41.407Z,100996.72
2022-08-26T19:18:18.514Z,101007.78
2022-08-26T19:20:49.141Z,101002.50
2022-08-26T19:23:31.886Z,101014.44
2022-08-26T19:26:04.938Z,101011.72
2022-08-26T19:28:37.197Z,101006.25
2022-08-26T19:31:05.854Z,101011.72
2022-08-26T19:33:34.433Z,101010.88
2022-08-26T19:36:06.486Z,101012.94
2022-08-26T19:38:35.280Z,101016.31
2022-08-26T19:41:03.827Z,101015.97
2022-08-26T19:43:32.341Z,101007.28
2022-08-26T19:46:00.977Z,101007.50
2022-08-26T19:48:29.970Z,101020.44
2022-08-26T19:50:58.351Z,101018.75
2022-08-26T19:53:28.003Z,101012.44
2022-08-26T19:56:11.125Z,101012.59
2022-08-26T19:58:39.640Z,101010.09
2022-08-26T20:01:08.802Z,101012.97
2022-08-26T20:03:38.599Z,101013.31
2022-08-26T20:06:09.338Z,101010.59
2022-08-26T20:08:41.346Z,101020.13
2022-08-26T20:11:12.423Z,101025.59
2022-08-26T20:13:41.850Z,101031.69
2022-08-26T20:16:12.329Z,101021.63
2022-08-26T20:18:59.242Z,101019.94
2022-08-26T20:21:29.420Z,101028.31
2022-08-26T20:24:01.886Z,101032.06
2022-08-26T20:26:31.941Z,101037.16
2022-08-26T20:29:04.829Z,101033.56
2022-08-26T20:31:33.624Z,101041.75
2022-08-26T20:34:02.125Z,101042.59
2022-08-26T20:36:31.351Z,101058.63
2022-08-26T20:39:01.564Z,101054.88
2022-08-26T20:41:31.686Z,101071.22
2022-08-26T20:44:03.851Z,101069.50
2022-08-26T20:46:33.947Z,101061.16
2022-08-26T20:49:02.502Z,101061.34
2022-08-26T20:51:37.483Z,101073.09
2022-08-26T20:54:08.852Z,101068.66
2022-08-26T20:56:37.879Z,101073.94
2022-08-26T20:59:08.056Z,101068.97
2022-08-26T21:01:42.447Z,101076.28
2022-08-26T21:05:25.065Z,101074.44
2022-08-26T21:07:53.509Z,101068.13
2022-08-26T21:10:23.012Z,101077.53
2022-08-26T21:12:55.580Z,101076.66
2022-08-26T21:15:23.935Z,101071.56
2022-08-26T21:17:53.063Z,101080.75
2022-08-26T21:20:21.544Z,101077.00
2022-08-26T21:22:52.015Z,101076.38
2022-08-26T21:25:21.576Z,101086.56
2022-08-26T21:27:50.206Z,101086.56
2022-08-26T21:30:18.941Z,101085.88
2022-08-26T21:32:47.389Z,101090.66
2022-08-26T21:35:19.205Z,101099.84
2022-08-26T21:37:47.973Z,101103.25
2022-08-26T21:40:18.109Z,101106.50
2022-08-26T21:42:46.538Z,101111.09
2022-08-26T21:45:17.035Z,101107.69
2022-08-26T21:47:48.250Z,101104.78
2022-08-26T21:50:17.323Z,101105.25
2022-08-26T21:52:45.799Z,101091.28
2022-08-26T21:55:14.237Z,101102.38
2022-08-26T21:57:43.984Z,101096.41
2022-08-26T22:00:15.772Z,101092.34
2022-08-26T22:02:45.246Z,101090.00
2022-08-26T22:05:13.992Z,101088.16
2022-08-26T22:07:42.319Z,101098.91
2022-08-26T22:10:11.004Z,101104.69
2022-08-26T22:12:39.519Z,101103.03
2022-08-26T22:15:10.990Z,101093.81
2022-08-26T22:17:39.856Z,101095.16
2022-08-26T22:20:16.501Z,101097.38
2022-08-26T22:22:45.926Z,101106.78
2022-08-26T22:25:14.411Z,101106.25
2022-08-26T22:27:45.493Z,101103.06
2022-08-26T22:30:15.496Z,101094.19
2022-08-26T22:32:45.970Z,101097.78
2022-08-26T22:35:28.739Z,101092.31
2022-08-26T22:37:58.012Z,101091.13
2022-08-26T22:40:26.894Z,101091.97
2022-08-26T22:43:00.054Z,101086.00
2022-08-26T22:45:31.452Z,101089.09
2022-08-26T22:48:00.075Z,101092.16
2022-08-26T22:50:28.370Z,101085.22
2022-08-26T22:52:56.946Z,101089.13
2022-08-26T22:55:25.396Z,101083.03
2022-08-26T22:57:53.798Z,101078.75
2022-08-26T23:00:22.537Z,101078.28
2022-08-26T23:05:25.005Z,101081.84
2022-08-26T23:07:54.128Z,101071.28
2022-08-26T23:10:22.692Z,101081.00
2022-08-26T23:12:52.489Z,101070.44
2022-08-26T23:15:24.137Z,101067.41
2022-08-26T23:17:58.543Z,101063.50
2022-08-26T23:20:29.360Z,101068.09
2022-08-26T23:22:57.842Z,101070.16
2022-08-26T23:25:27.303Z,101071.66
2022-08-26T23:27:57.079Z,101068.47
2022-08-26T23:30:27.893Z,101073.91
2022-08-26T23:32:56.268Z,101085.44
2022-08-26T23:35:24.954Z,101095.84
2022-08-26T23:37:54.808Z,101104.50
2022-08-26T23:40:30.384Z,101103.66
2022-08-26T23:43:00.464Z,101102.16
2022-08-26T23:45:29.778Z,101107.59
2022-08-26T23:47:58.136Z,101112.00
2022-08-26T23:50:49.194Z,101114.72
2022-08-26T23:53:20.930Z,101103.97
2022-08-26T23:55:51.273Z,101114.19
2022-08-26T23:58:21.438Z,101112.63
